createdAt,value
2023-01-25T00:00:31.504Z,14.75
2023-01-25T00:03:18.688Z,15.38
2023-01-25T00:05:46.003Z,14.52
2023-01-25T00:08:12.992Z,13.90
2023-01-25T00:10:40.340Z,14.30
2023-01-25T00:13:07.353Z,14.57
2023-01-25T00:15:34.786Z,14.98
2023-01-25T00:18:01.776Z,14.55
2023-01-25T00:20:29.560Z,14.27
2023-01-25T00:22:56.556Z,14.40
2023-01-25T00:25:24.123Z,15.73
2023-01-25T00:27:51.167Z,14.93
2023-01-25T00:30:18.511Z,14.40
2023-01-25T00:32:57.696Z,14.57
2023-01-25T00:35:31.712Z,15.90
2023-01-25T00:38:02.566Z,15.25
2023-01-25T00:40:30.131Z,15.85
2023-01-25T00:43:00.801Z,15.40
2023-01-25T00:45:28.397Z,14.27
2023-01-25T00:47:56.422Z,14.50
2023-01-25T00:50:23.883Z,16.30
2023-01-25T00:52:50.889Z,15.15
2023-01-25T00:55:18.387Z,16.38
2023-01-25T00:57:48.346Z,16.15
2023-01-25T01:00:16.369Z,15.55
2023-01-25T01:02:43.383Z,15.00
2023-01-25T01:05:11.280Z,14.40
2023-01-25T01:07:38.858Z,14.88
2023-01-25T01:10:07.202Z,15.82
2023-01-25T01:12:34.400Z,16.63
2023-01-25T01:15:01.784Z,15.38
2023-01-25T01:17:28.890Z,14.82
2023-01-25T01:19:56.466Z,15.20
2023-01-25T01:22:23.769Z,15.98
2023-01-25T01:24:51.058Z,16.13
2023-01-25T01:27:18.912Z,15.68
2023-01-25T01:29:46.349Z,14.65
2023-01-25T01:32:13.539Z,15.43
2023-01-25T01:34:41.120Z,15.60
2023-01-25T01:37:08.265Z,16.50
2023-01-25T01:39:35.598Z,15.80
2023-01-25T01:42:02.919Z,14.32
2023-01-25T01:44:46.103Z,15.02
2023-01-25T01:47:22.247Z,15.77
2023-01-25T01:50:06.455Z,16.45
2023-01-25T01:52:37.333Z,15.27
2023-01-25T01:55:08.063Z,14.88
2023-01-25T01:57:41.060Z,13.60
2023-01-25T02:00:18.888Z,15.60
2023-01-25T02:02:49.316Z,15.60
2023-01-25T02:05:27.632Z,15.55
2023-01-25T02:07:57.389Z,15.45
2023-01-25T02:10:27.052Z,16.40
2023-01-25T02:12:58.413Z,16.95
2023-01-25T02:15:32.873Z,15.20
2023-01-25T02:18:00.045Z,14.85
2023-01-25T02:20:42.072Z,15.13
2023-01-25T02:23:43.317Z,17.00
2023-01-25T02:26:11.157Z,15.18
2023-01-25T02:28:49.719Z,15.75
2023-01-25T02:31:17.794Z,14.80
2023-01-25T02:33:44.875Z,15.35
2023-01-25T02:36:12.446Z,15.18
2023-01-25T02:38:43.460Z,15.32
2023-01-25T02:41:34.554Z,15.57
2023-01-25T02:44:31.667Z,15.55
2023-01-25T02:47:00.626Z,15.82
2023-01-25T02:49:27.739Z,15.52
2023-01-25T02:51:57.415Z,15.60
2023-01-25T02:54:26.807Z,17.42
2023-01-25T02:56:54.814Z,17.25
2023-01-25T02:59:23.768Z,15.80
2023-01-25T03:01:54.690Z,15.90
2023-01-25T03:04:21.924Z,16.50
2023-01-25T03:06:49.327Z,15.98
2023-01-25T03:09:17.777Z,17.23
2023-01-25T03:11:48.433Z,14.43
2023-01-25T03:14:17.284Z,15.65
2023-01-25T03:16:44.881Z,15.23
2023-01-25T03:19:12.788Z,15.77
2023-01-25T03:21:41.975Z,16.08
2023-01-25T03:24:11.337Z,16.15
2023-01-25T03:27:02.751Z,16.23
2023-01-25T03:29:35.980Z,15.88
2023-01-25T03:32:07.473Z,16.05
2023-01-25T03:34:34.724Z,16.42
2023-01-25T03:37:02.584Z,15.55
2023-01-25T03:39:31.599Z,16.90
2023-01-25T03:41:58.915Z,16.38
2023-01-25T03:44:26.312Z,13.73
2023-01-25T03:46:53.774Z,15.20
2023-01-25T03:49:21.094Z,14.40
2023-01-25T03:51:48.658Z,14.85
2023-01-25T03:54:17.022Z,16.30
2023-01-25T03:56:44.426Z,16.40
2023-01-25T03:59:17.023Z,14.77
2023-01-25T04:01:45.541Z,14.93
2023-01-25T04:04:12.802Z,15.80
2023-01-25T04:06:42.951Z,16.65
2023-01-25T04:09:10.499Z,16.20
2023-01-25T04:11:44.702Z,16.38
2023-01-25T04:14:13.215Z,15.70
2023-01-25T04:16:46.823Z,16.15
2023-01-25T04:19:27.549Z,18.40
2023-01-25T04:21:59.144Z,18.05
2023-01-25T04:24:32.288Z,16.85
2023-01-25T04:26:59.733Z,15.63
2023-01-25T04:29:40.476Z,18.67
2023-01-25T04:32:09.244Z,17.40
2023-01-25T04:34:36.428Z,17.25
2023-01-25T04:37:04.181Z,17.23
2023-01-25T04:39:36.405Z,18.33
2023-01-25T04:42:04.191Z,18.60
2023-01-25T04:44:31.456Z,20.85
2023-01-25T04:46:59.956Z,19.15
2023-01-25T04:49:27.358Z,16.52
2023-01-25T04:51:54.675Z,18.45
2023-01-25T04:54:21.921Z,18.80
2023-01-25T04:56:49.264Z,18.98
2023-01-25T04:59:16.465Z,16.05
2023-01-25T05:01:44.174Z,16.75
2023-01-25T05:04:11.262Z,18.92
2023-01-25T05:06:41.551Z,16.67
2023-01-25T05:09:10.113Z,14.57
2023-01-25T05:11:37.795Z,15.73
2023-01-25T05:14:11.811Z,17.25
2023-01-25T05:16:39.412Z,15.65
2023-01-25T05:19:10.203Z,14.05
2023-01-25T05:21:59.370Z,16.00
2023-01-25T05:24:32.873Z,15.55
2023-01-25T05:27:04.210Z,17.08
2023-01-25T05:29:48.382Z,16.25
2023-01-25T05:32:21.375Z,15.20
2023-01-25T05:34:49.771Z,16.08
2023-01-25T05:37:20.245Z,15.60
2023-01-25T05:39:51.866Z,14.88
2023-01-25T05:42:20.091Z,15.38
2023-01-25T05:44:48.199Z,15.77
2023-01-25T05:47:18.147Z,14.95
2023-01-25T05:49:45.337Z,15.27
2023-01-25T05:52:20.253Z,15.27
2023-01-25T05:54:48.499Z,19.50
2023-01-25T05:57:16.670Z,16.95
2023-01-25T05:59:44.444Z,15.60
2023-01-25T06:02:14.730Z,16.25
2023-01-25T06:04:43.528Z,17.63
2023-01-25T06:07:11.345Z,18.35
2023-01-25T06:09:38.489Z,17.17
2023-01-25T06:12:06.850Z,17.88
2023-01-25T06:14:34.198Z,22.20
2023-01-25T06:17:03.292Z,17.00
2023-01-25T06:19:54.783Z,19.98
2023-01-25T06:22:26.965Z,18.80
2023-01-25T06:24:53.973Z,18.95
2023-01-25T06:27:21.340Z,17.95
2023-01-25T06:29:48.378Z,19.38
2023-01-25T06:32:15.760Z,16.08
2023-01-25T06:34:42.928Z,18.63
2023-01-25T06:37:16.958Z,17.77
2023-01-25T06:39:44.105Z,18.73
2023-01-25T06:42:11.534Z,20.67
2023-01-25T06:44:38.709Z,17.17
2023-01-25T06:47:09.102Z,17.42
2023-01-25T06:49:36.271Z,19.60
2023-01-25T06:52:04.081Z,18.63
2023-01-25T06:54:31.156Z,19.80
2023-01-25T06:56:58.751Z,19.60
2023-01-25T06:59:25.828Z,20.98
2023-01-25T07:01:53.268Z,18.10
2023-01-25T07:04:20.430Z,17.90
2023-01-25T07:06:47.851Z,20.90
2023-01-25T07:09:15.030Z,20.73
2023-01-25T07:11:42.757Z,19.88
2023-01-25T07:14:09.745Z,19.17
2023-01-25T07:16:37.260Z,20.80
2023-01-25T07:19:10.256Z,21.17
2023-01-25T07:21:37.613Z,24.98
2023-01-25T07:24:05.407Z,20.70
2023-01-25T07:26:33.058Z,19.10
2023-01-25T07:29:00.508Z,18.67
2023-01-25T07:31:28.762Z,19.73
2023-01-25T07:33:58.130Z,18.45
2023-01-25T07:36:26.595Z,18.73
2023-01-25T07:38:55.268Z,25.73
2023-01-25T07:41:23.476Z,21.25
2023-01-25T07:43:52.300Z,18.83
2023-01-25T07:46:33.345Z,20.05
2023-01-25T07:49:00.466Z,22.95
2023-01-25T07:51:30.192Z,25.20
2023-01-25T07:53:59.457Z,23.50
2023-01-25T07:56:30.656Z,31.52
2023-01-25T07:58:59.035Z,24.05
2023-01-25T08:01:28.741Z,22.33
2023-01-25T08:03:57.370Z,21.67
2023-01-25T08:06:30.696Z,36.88
2023-01-25T08:08:59.327Z,51.33
2023-01-25T08:11:29.085Z,21.67
2023-01-25T08:13:56.315Z,20.52
2023-01-25T08:16:26.311Z,40.67
2023-01-25T08:18:58.514Z,24.00
2023-01-25T08:21:30.192Z,27.77
2023-01-25T08:23:58.894Z,44.03
2023-01-25T08:26:26.684Z,32.92
2023-01-25T08:28:54.399Z,21.02
2023-01-25T08:31:24.881Z,29.52
2023-01-25T08:33:52.445Z,26.23
2023-01-25T08:36:20.785Z,24.45
2023-01-25T08:38:48.233Z,22.83
2023-01-25T08:41:18.369Z,25.55
2023-01-25T08:43:46.811Z,20.77
2023-01-25T08:46:16.521Z,31.27
2023-01-25T08:48:43.658Z,34.30
2023-01-25T08:51:16.095Z,48.13
2023-01-25T08:53:43.448Z,25.08
2023-01-25T08:56:13.843Z,22.90
2023-01-25T08:58:46.619Z,25.50
2023-01-25T09:01:17.186Z,28.75
2023-01-25T09:03:46.469Z,25.30
2023-01-25T09:06:14.628Z,26.05
2023-01-25T09:08:42.058Z,28.67
2023-01-25T09:11:20.568Z,26.88
2023-01-25T09:13:49.076Z,33.00
2023-01-25T09:16:20.680Z,21.70
2023-01-25T09:18:49.766Z,23.75
2023-01-25T09:21:19.011Z,22.27
2023-01-25T09:23:51.119Z,30.55
2023-01-25T09:26:25.561Z,25.23
2023-01-25T09:28:54.331Z,23.58
2023-01-25T09:31:25.506Z,25.52
2023-01-25T09:34:22.359Z,24.73
2023-01-25T09:36:49.856Z,21.90
2023-01-25T09:39:16.909Z,23.65
2023-01-25T09:41:58.189Z,24.27
2023-01-25T09:44:58.209Z,25.23
2023-01-25T09:47:52.888Z,24.70
2023-01-25T09:50:28.776Z,22.67
2023-01-25T09:53:07.903Z,23.40
2023-01-25T09:55:35.840Z,22.70
2023-01-25T09:58:04.747Z,24.42
2023-01-25T10:00:44.832Z,23.85
2023-01-25T10:03:45.484Z,25.35
2023-01-25T10:06:14.379Z,24.60
2023-01-25T10:09:02.530Z,23.05
2023-01-25T10:11:32.430Z,26.85
2023-01-25T10:14:00.575Z,26.42
2023-01-25T10:16:38.423Z,25.50
2023-01-25T10:19:22.627Z,26.92
2023-01-25T10:22:19.725Z,24.48
2023-01-25T10:24:58.790Z,27.35
2023-01-25T10:27:25.768Z,28.27
2023-01-25T10:29:57.528Z,28.90
2023-01-25T10:32:35.834Z,29.13
2023-01-25T10:35:33.296Z,29.17
2023-01-25T10:38:07.789Z,27.05
2023-01-25T10:40:54.542Z,28.83
2023-01-25T10:43:22.952Z,28.35
2023-01-25T10:45:51.303Z,25.58
2023-01-25T10:48:23.018Z,28.35
2023-01-25T10:50:53.720Z,30.27
2023-01-25T10:53:39.445Z,25.55
2023-01-25T10:56:21.455Z,25.65
2023-01-25T10:58:51.266Z,29.23
2023-01-25T11:01:36.709Z,36.60
2023-01-25T11:04:21.429Z,24.73
2023-01-25T11:06:51.414Z,27.40
2023-01-25T11:09:21.319Z,27.55
2023-01-25T11:11:56.552Z,25.83
2023-01-25T11:14:27.307Z,25.15
2023-01-25T11:16:56.362Z,26.95
2023-01-25T11:19:40.475Z,25.00
2023-01-25T11:22:20.063Z,28.05
2023-01-25T11:24:47.386Z,23.60
2023-01-25T11:27:23.666Z,23.80
2023-01-25T11:30:10.471Z,23.13
2023-01-25T11:32:41.689Z,26.10
2023-01-25T11:35:27.602Z,26.50
2023-01-25T11:38:05.607Z,27.05
2023-01-25T11:41:04.726Z,27.83
2023-01-25T11:44:04.196Z,32.78
2023-01-25T11:47:08.603Z,28.38
2023-01-25T11:49:35.937Z,32.88
2023-01-25T11:52:24.281Z,28.52
2023-01-25T11:55:15.593Z,27.98
2023-01-25T11:58:13.456Z,32.42
2023-01-25T12:01:20.594Z,31.08
2023-01-25T12:04:28.396Z,30.10
2023-01-25T12:07:02.808Z,31.60
2023-01-25T12:09:47.889Z,53.92
2023-01-25T12:12:18.178Z,32.50
2023-01-25T12:15:17.130Z,40.53
2023-01-25T12:17:50.505Z,35.50
2023-01-25T12:20:26.493Z,34.65
2023-01-25T12:23:13.401Z,64.38
2023-01-25T12:25:43.651Z,34.97
2023-01-25T12:28:30.398Z,66.45
2023-01-25T12:31:07.910Z,41.00
2023-01-25T12:33:41.356Z,52.60
2023-01-25T12:36:23.490Z,40.10
2023-01-25T12:38:59.323Z,45.70
2023-01-25T12:41:38.489Z,41.75
2023-01-25T12:44:17.390Z,43.45
2023-01-25T12:46:47.468Z,40.47
2023-01-25T12:49:33.621Z,38.78
2023-01-25T12:52:07.188Z,38.58
2023-01-25T12:54:38.650Z,42.63
2023-01-25T12:57:11.771Z,39.67
2023-01-25T13:00:06.390Z,42.83
2023-01-25T13:02:48.691Z,39.13
2023-01-25T13:05:51.527Z,38.47
2023-01-25T13:08:53.854Z,40.88
2023-01-25T13:11:39.750Z,37.65
2023-01-25T13:14:15.915Z,39.33
2023-01-25T13:17:01.413Z,42.05
2023-01-25T13:19:36.542Z,35.72
2023-01-25T13:22:05.232Z,33.65
2023-01-25T13:24:34.958Z,35.45
2023-01-25T13:27:22.941Z,32.75
2023-01-25T13:30:22.904Z,32.00
2023-01-25T13:32:50.296Z,34.70
2023-01-25T13:35:32.897Z,32.00
2023-01-25T13:38:08.679Z,32.90
2023-01-25T13:40:38.301Z,34.67
2023-01-25T13:43:22.412Z,34.58
2023-01-25T13:45:52.775Z,34.75
2023-01-25T13:48:23.296Z,38.63
2023-01-25T13:51:03.279Z,29.48
2023-01-25T13:53:35.284Z,31.05
2023-01-25T13:56:03.129Z,31.27
2023-01-25T13:58:36.357Z,28.20
2023-01-25T14:01:07.121Z,31.35
2023-01-25T14:03:46.808Z,33.42
2023-01-25T14:06:24.002Z,32.47
2023-01-25T14:08:53.239Z,31.88
2023-01-25T14:11:31.594Z,30.75
2023-01-25T14:14:17.126Z,30.85
2023-01-25T14:16:45.119Z,29.27
2023-01-25T14:19:29.948Z,36.25
2023-01-25T14:22:42.081Z,32.85
2023-01-25T14:25:15.497Z,31.20
2023-01-25T14:28:06.394Z,35.53
2023-01-25T14:30:36.162Z,33.50
2023-01-25T14:33:27.823Z,31.70
2023-01-25T14:36:24.923Z,36.65
2023-01-25T14:38:52.958Z,33.47
2023-01-25T14:41:31.798Z,29.35
2023-01-25T14:44:03.747Z,34.63
2023-01-25T14:46:36.050Z,34.72
2023-01-25T14:49:06.980Z,37.28
2023-01-25T14:51:39.468Z,35.45
2023-01-25T14:54:19.389Z,39.22
2023-01-25T14:56:49.942Z,54.10
2023-01-25T14:59:39.705Z,37.10
2023-01-25T15:02:18.971Z,38.72
2023-01-25T15:04:53.715Z,36.30
2023-01-25T15:07:54.585Z,43.60
2023-01-25T15:10:27.012Z,35.08
2023-01-25T15:12:58.486Z,41.75
2023-01-25T15:15:35.671Z,37.10
2023-01-25T15:18:03.674Z,41.47
2023-01-25T15:20:40.444Z,35.17
2023-01-25T15:26:01.437Z,47.35
2023-01-25T15:28:34.483Z,33.45
2023-01-25T15:31:03.496Z,33.25
2023-01-25T15:33:32.622Z,34.53
2023-01-25T15:35:59.740Z,37.05
2023-01-25T15:38:27.161Z,34.40
2023-01-25T15:41:00.419Z,32.20
2023-01-25T15:43:28.445Z,34.50
2023-01-25T15:45:57.588Z,32.65
2023-01-25T15:48:33.991Z,33.97
2023-01-25T15:51:01.397Z,34.50
2023-01-25T15:53:28.866Z,37.45
2023-01-25T15:56:03.594Z,34.05
2023-01-25T15:58:35.288Z,31.67
2023-01-25T16:01:03.053Z,33.92
2023-01-25T16:03:30.843Z,35.55
2023-01-25T16:06:02.988Z,32.72
2023-01-25T16:08:31.603Z,33.25
2023-01-25T16:10:58.676Z,32.63
2023-01-25T16:13:26.318Z,37.95
2023-01-25T16:15:54.955Z,30.23
2023-01-25T16:18:22.402Z,35.20
2023-01-25T16:20:50.148Z,36.53
2023-01-25T16:23:17.471Z,32.08
2023-01-25T16:25:47.480Z,34.20
2023-01-25T16:28:18.100Z,32.15
2023-01-25T16:30:45.436Z,47.03
2023-01-25T16:33:12.869Z,35.17
2023-01-25T16:35:39.997Z,39.40
2023-01-25T16:38:07.445Z,38.67
2023-01-25T16:40:39.762Z,34.67
2023-01-25T16:43:07.237Z,39.95
2023-01-25T16:45:34.259Z,41.42
2023-01-25T16:48:01.950Z,37.97
2023-01-25T16:50:29.253Z,36.25
2023-01-25T16:52:58.491Z,34.88
2023-01-25T16:55:25.567Z,67.32
2023-01-25T16:57:52.843Z,44.88
2023-01-25T17:00:20.421Z,37.17
2023-01-25T17:02:58.807Z,34.35
2023-01-25T17:05:33.932Z,39.60
2023-01-25T17:08:01.526Z,36.55
2023-01-25T17:10:29.833Z,47.50
2023-01-25T17:12:57.230Z,37.55
2023-01-25T17:15:24.342Z,38.10
2023-01-25T17:17:51.660Z,32.25
2023-01-25T17:20:18.753Z,33.38
2023-01-25T17:22:50.982Z,35.22
2023-01-25T17:25:18.331Z,34.22
2023-01-25T17:27:45.652Z,32.75
2023-01-25T17:30:13.239Z,31.80
2023-01-25T17:32:41.011Z,36.47
2023-01-25T17:35:08.513Z,35.80
2023-01-25T17:37:35.871Z,35.65
2023-01-25T17:40:02.947Z,33.10
2023-01-25T17:42:30.325Z,33.75
2023-01-25T17:44:57.347Z,35.58
2023-01-25T17:47:24.726Z,34.13
2023-01-25T17:49:51.794Z,37.38
2023-01-25T17:52:19.103Z,32.97
2023-01-25T17:54:46.259Z,33.28
2023-01-25T17:57:13.661Z,43.95
2023-01-25T17:59:40.767Z,37.83
2023-01-25T18:02:11.039Z,35.10
2023-01-25T18:04:38.162Z,32.85
2023-01-25T18:07:05.854Z,33.03
2023-01-25T18:09:33.737Z,34.53
2023-01-25T18:12:01.140Z,35.83
2023-01-25T18:14:29.530Z,32.70
2023-01-25T18:16:57.498Z,36.65
2023-01-25T18:19:24.576Z,36.83
2023-01-25T18:21:52.147Z,34.45
2023-01-25T18:24:33.194Z,36.13
2023-01-25T18:27:25.041Z,31.85
2023-01-25T18:30:04.462Z,33.78
2023-01-25T18:32:32.981Z,36.63
2023-01-25T18:35:00.261Z,34.50
2023-01-25T18:37:33.465Z,35.60
2023-01-25T18:40:00.583Z,38.55
2023-01-25T18:42:28.340Z,37.30
2023-01-25T18:44:55.506Z,39.00
2023-01-25T18:47:23.737Z,35.50
2023-01-25T18:49:52.748Z,41.13
2023-01-25T18:52:22.784Z,37.40
2023-01-25T18:54:50.310Z,38.05
2023-01-25T18:57:18.192Z,38.30
2023-01-25T18:59:45.335Z,39.83
2023-01-25T19:02:14.494Z,37.92
2023-01-25T19:04:41.995Z,39.45
2023-01-25T19:07:09.372Z,37.88
2023-01-25T19:09:36.578Z,38.05
2023-01-25T19:12:04.694Z,36.53
2023-01-25T19:14:31.896Z,39.55
2023-01-25T19:16:59.217Z,38.40
2023-01-25T19:19:31.851Z,40.20
2023-01-25T19:22:00.268Z,38.58
2023-01-25T19:24:27.559Z,37.65
2023-01-25T19:26:54.997Z,39.97
2023-01-25T19:29:22.155Z,39.72
2023-01-25T19:31:50.157Z,43.00
2023-01-25T19:34:17.293Z,40.65
2023-01-25T19:36:50.141Z,37.88
2023-01-25T19:39:17.739Z,41.08
2023-01-25T19:41:45.327Z,40.00
2023-01-25T19:44:13.916Z,41.70
2023-01-25T19:46:41.515Z,40.47
2023-01-25T19:49:10.717Z,38.45
2023-01-25T19:51:41.363Z,38.33
2023-01-25T19:54:16.717Z,40.08
2023-01-25T19:56:46.795Z,40.65
2023-01-25T19:59:20.038Z,41.60
2023-01-25T20:01:47.801Z,42.00
2023-01-25T20:04:17.680Z,43.13
2023-01-25T20:06:45.032Z,42.75
2023-01-25T20:09:14.179Z,43.70
2023-01-25T20:11:42.053Z,44.60
2023-01-25T20:14:11.685Z,42.67
2023-01-25T20:16:39.175Z,43.67
2023-01-25T20:19:06.727Z,44.33
2023-01-25T20:21:35.324Z,44.65
2023-01-25T20:24:04.698Z,46.58
2023-01-25T20:26:37.395Z,42.42
2023-01-25T20:29:05.606Z,45.92
2023-01-25T20:31:34.454Z,46.08
2023-01-25T20:34:07.202Z,46.85
2023-01-25T20:36:35.821Z,46.88
2023-01-25T20:39:03.771Z,46.10
2023-01-25T20:41:31.109Z,46.58
2023-01-25T20:44:01.938Z,45.47
2023-01-25T20:46:33.752Z,49.30
2023-01-25T20:49:01.815Z,44.97
2023-01-25T20:51:29.802Z,44.95
2023-01-25T20:53:57.440Z,49.60
2023-01-25T20:56:25.257Z,47.10
2023-01-25T20:58:53.674Z,48.55
2023-01-25T21:01:29.505Z,45.55
2023-01-25T21:03:58.161Z,43.88
2023-01-25T21:06:27.458Z,46.78
2023-01-25T21:08:55.015Z,45.92
2023-01-25T21:11:25.951Z,46.53
2023-01-25T21:13:56.320Z,46.20
2023-01-25T21:16:23.832Z,44.47
2023-01-25T21:18:53.063Z,46.97
2023-01-25T21:21:22.824Z,46.97
2023-01-25T21:23:50.969Z,48.60
2023-01-25T21:26:24.001Z,48.75
2023-01-25T21:28:54.652Z,47.35
2023-01-25T21:31:24.886Z,46.58
2023-01-25T21:33:53.235Z,49.28
2023-01-25T21:36:22.033Z,47.15
2023-01-25T21:38:51.230Z,49.20
2023-01-25T21:41:24.788Z,46.25
2023-01-25T21:44:12.235Z,44.25
2023-01-25T21:46:39.898Z,48.20
2023-01-25T21:49:27.763Z,44.88
2023-01-25T21:51:58.104Z,44.88
2023-01-25T21:54:27.488Z,44.97
2023-01-25T21:56:56.577Z,46.38
2023-01-25T21:59:24.257Z,47.03
2023-01-25T22:01:53.157Z,45.15
2023-01-25T22:04:21.632Z,45.25
2023-01-25T22:06:50.460Z,44.40
2023-01-25T22:09:17.796Z,47.47
2023-01-25T22:11:48.393Z,46.88
2023-01-25T22:14:15.752Z,46.97
2023-01-25T22:16:43.128Z,42.88
2023-01-25T22:19:10.312Z,45.92
2023-01-25T22:21:37.940Z,46.88
2023-01-25T22:24:06.112Z,58.47
2023-01-25T22:26:45.553Z,43.63
2023-01-25T22:29:13.170Z,44.45
2023-01-25T22:31:41.398Z,45.92
2023-01-25T22:34:08.715Z,43.70
2023-01-25T22:36:36.055Z,43.67
2023-01-25T22:39:03.173Z,43.47
2023-01-25T22:41:32.623Z,42.03
2023-01-25T22:43:59.613Z,44.17
2023-01-25T22:46:29.226Z,44.53
2023-01-25T22:48:58.363Z,42.47
2023-01-25T22:51:28.908Z,40.75
2023-01-25T22:53:57.502Z,45.38
2023-01-25T22:56:31.943Z,44.17
2023-01-25T22:59:00.294Z,44.05
2023-01-25T23:01:30.638Z,39.40
2023-01-25T23:03:58.594Z,40.33
2023-01-25T23:06:33.138Z,43.05
2023-01-25T23:09:03.394Z,40.03
2023-01-25T23:11:35.533Z,41.63
2023-01-25T23:14:26.377Z,42.75
2023-01-25T23:17:14.059Z,39.55
2023-01-25T23:22:08.346Z,38.92
2023-01-25T23:24:35.390Z,42.83
2023-01-25T23:27:02.731Z,43.03
2023-01-25T23:29:29.937Z,39.75
2023-01-25T23:31:57.309Z,40.08
2023-01-25T23:34:24.467Z,40.70
2023-01-25T23:36:51.786Z,43.83
2023-01-25T23:39:18.906Z,39.83
2023-01-25T23:41:46.830Z,39.08
2023-01-25T23:44:13.912Z,41.45
2023-01-25T23:46:41.284Z,40.67
2023-01-25T23:49:08.463Z,40.53
2023-01-25T23:51:35.893Z,37.15
2023-01-25T23:54:03.026Z,36.15
2023-01-25T23:56:30.373Z,38.85
2023-01-25T23:58:57.761Z,39.17
